TimeCDT,TemperatureF,Dew PointF,Humidity,Sea Level PressureIn,VisibilityMPH,Wind Direction,Wind SpeedMPH,Gust SpeedMPH,PrecipitationIn,Events,Conditions,WindDirDegrees,DateUTC
12:55 AM,41.0,24.1,51,30.17,10.0,South,9.2,-,N/A,,Clear,170,2011-10-29 05:55:00
1:55 AM,43.0,25.0,49,30.15,10.0,South,11.5,-,N/A,,Clear,180,2011-10-29 06:55:00
2:55 AM,39.2,24.8,56,30.13,10.0,South,9.2,-,N/A,,Clear,170,2011-10-29 07:55:00
3:55 AM,41.0,25.0,53,30.11,10.0,South,12.7,-,N/A,,Clear,170,2011-10-29 08:55:00
4:55 AM,42.8,24.8,49,30.09,10.0,South,12.7,-,N/A,,Clear,170,2011-10-29 09:55:00
5:55 AM,41.0,25.0,53,30.09,10.0,SE,5.8,-,N/A,,Clear,140,2011-10-29 10:55:00
6:55 AM,37.0,24.1,59,30.09,10.0,Calm,Calm,-,N/A,,Clear,0,2011-10-29 11:55:00
7:55 AM,33.1,24.1,70,30.09,10.0,SW,3.5,-,N/A,,Clear,220,2011-10-29 12:55:00
8:55 AM,37.0,27.0,67,30.09,10.0,Calm,Calm,-,N/A,,Clear,0,2011-10-29 13:55:00
9:55 AM,44.6,26.6,49,30.06,10.0,Calm,Calm,-,N/A,,Clear,0,2011-10-29 14:55:00
10:55 AM,54.0,27.0,35,30.04,10.0,South,4.6,-,N/A,,Clear,170,2011-10-29 15:55:00
11:55 AM,61.0,28.0,29,30.01,10.0,SW,12.7,19.6,N/A,,Clear,220,2011-10-29 16:55:00
12:55 PM,61.0,30.9,32,29.98,10.0,SSW,18.4,-,N/A,,Clear,210,2011-10-29 17:55:00
1:55 PM,68.0,26.1,21,29.91,10.0,SSW,23.0,28.8,N/A,,Clear,200,2011-10-29 18:55:00
2:55 PM,69.1,28.0,22,29.87,10.0,SSW,24.2,33.4,N/A,,Clear,200,2011-10-29 19:55:00
3:55 PM,70.0,25.0,18,29.83,10.0,SSW,24.2,35.7,N/A,,Clear,200,2011-10-29 20:55:00
4:55 PM,68.0,27.0,21,29.83,10.0,SSW,20.7,31.1,N/A,,Clear,200,2011-10-29 21:55:00
5:55 PM,64.0,28.9,27,29.83,10.0,South,16.1,23.0,N/A,,Clear,190,2011-10-29 22:55:00
6:55 PM,60.8,26.6,27,29.83,10.0,South,13.8,-,N/A,,Clear,190,2011-10-29 23:55:00
7:55 PM,59.0,25.0,27,29.84,10.0,South,18.4,-,N/A,,Clear,180,2011-10-30 00:55:00
8:55 PM,57.9,28.0,32,29.83,10.0,South,21.9,31.1,N/A,,Clear,190,2011-10-30 01:55:00
9:55 PM,55.9,30.9,39,29.83,10.0,South,19.6,29.9,N/A,,Clear,190,2011-10-30 02:55:00
10:55 PM,55.0,33.1,43,29.83,10.0,SSW,20.7,27.6,N/A,,Clear,200,2011-10-30 03:55:00
11:55 PM,54.0,35.1,49,29.82,10.0,SSW,19.6,26.5,N/A,,Clear,210,2011-10-30 04:55:00